Time;durP1;ratioP1;P1;durP2;ratioP2;P2;SDS_P1;SDS_P2;PMS_P1;PMS_P2;Temp;Humidity;BMP_temperature;BMP_pressure;BME280_temperature;BME280_humidity;BME280_pressure;Samples;Min_cycle;Max_cycle;Signal;HPM_P1;HPM_P2
2023/11/08 00:01:34;;;;;;;28.33;19.63;;;;;;;1.63;100.00;96215.69;5082692;28;20017;-65
2023/11/08 00:04:00;;;;;;;25.88;16.85;;;;;;;1.60;100.00;96211.47;5084770;28;20024;-65
2023/11/08 00:06:26;;;;;;;16.23;12.57;;;;;;;1.59;100.00;96207.22;5087642;28;20918;-65
2023/11/08 00:08:52;;;;;;;13.27;10.00;;;;;;;1.63;100.00;96203.53;5085457;28;20035;-65
2023/11/08 00:11:23;;;;;;;20.02;12.18;;;;;;;1.63;100.00;96203.53;5084084;28;20041;-65
2023/11/08 00:13:49;;;;;;;29.55;15.45;;;;;;;1.62;100.00;96201.03;5086509;28;20052;-65
2023/11/08 00:16:17;;;;;;;22.13;12.60;;;;;;;1.59;100.00;96193.41;5088392;28;20043;-65
2023/11/08 00:18:42;;;;;;;28.17;13.38;;;;;;;1.52;100.00;96195.44;5085244;28;20027;-65
2023/11/08 00:21:08;;;;;;;23.57;13.27;;;;;;;1.51;100.00;96188.59;5084027;28;20020;-65
2023/11/08 00:23:33;;;;;;;25.15;15.30;;;;;;;1.52;100.00;96190.25;5085209;28;20475;-65
2023/11/08 00:25:59;;;;;;;25.17;14.27;;;;;;;1.46;100.00;96186.19;5078363;28;20097;-65
2023/11/08 00:28:24;;;;;;;22.50;13.73;;;;;;;1.45;100.00;96183.69;5083779;28;20105;-65
2023/11/08 00:30:49;;;;;;;22.50;11.95;;;;;;;1.45;100.00;96184.53;5084137;28;20040;-65
2023/11/08 00:33:16;;;;;;;18.02;10.25;;;;;;;1.45;100.00;96184.53;5091646;28;20026;-65
2023/11/08 00:35:42;;;;;;;23.75;13.48;;;;;;;1.46;100.00;96181.00;5087136;28;20464;-65
2023/11/08 00:38:07;;;;;;;22.58;13.63;;;;;;;1.44;100.00;96188.03;5087081;28;20084;-65
2023/11/08 00:40:33;;;;;;;25.60;14.93;;;;;;;1.40;100.00;96186.50;5085932;28;20032;-65
2023/11/08 00:42:59;;;;;;;31.58;16.15;;;;;;;1.37;100.00;96192.66;5080735;28;20048;-65
2023/11/08 00:45:24;;;;;;;25.40;14.13;;;;;;;1.39;100.00;96187.41;5079939;28;20389;-65
2023/11/08 00:47:52;;;;;;;20.60;12.07;;;;;;;1.30;100.00;96193.88;5085231;28;20028;-65
2023/11/08 00:50:18;;;;;;;23.58;14.60;;;;;;;1.34;100.00;96194.59;5084539;28;20039;-64
2023/11/08 00:52:43;;;;;;;26.02;15.07;;;;;;;1.36;100.00;96193.56;5084900;28;20020;-65
2023/11/08 00:55:09;;;;;;;27.67;13.43;;;;;;;1.37;100.00;96199.63;5077752;28;20033;-65
2023/11/08 00:57:36;;;;;;;20.02;11.23;;;;;;;1.31;100.00;96192.09;5079891;28;20550;-65
2023/11/08 01:00:07;;;;;;;20.63;10.13;;;;;;;1.32;100.00;96199.84;5085751;28;20111;-65
2023/11/08 01:02:33;;;;;;;20.98;10.85;;;;;;;1.31;100.00;96199.91;5077070;28;20034;-65
2023/11/08 01:04:58;;;;;;;19.33;9.68;;;;;;;1.30;100.00;96201.66;5081036;28;20119;-65
2023/11/08 01:07:24;;;;;;;19.70;11.30;;;;;;;1.27;100.00;96202.63;5089614;28;20446;-65
2023/11/08 01:09:49;;;;;;;16.70;9.18;;;;;;;1.28;100.00;96208.69;5077947;28;20467;-65
2023/11/08 01:12:15;;;;;;;15.48;7.88;;;;;;;1.24;100.00;96202.78;5091884;28;20028;-65
2023/11/08 01:14:41;;;;;;;16.10;9.85;;;;;;;1.24;100.00;96207.16;5088180;28;20040;-65
2023/11/08 01:17:08;;;;;;;30.60;16.30;;;;;;;1.21;100.00;96208.13;5090257;28;20028;-65
2023/11/08 01:19:36;;;;;;;21.10;12.43;;;;;;;1.17;100.00;96201.41;5084959;28;20039;-65
2023/11/08 01:22:05;;;;;;;28.17;16.90;;;;;;;1.15;100.00;96211.00;5084367;28;20028;-65
2023/11/08 01:24:31;;;;;;;26.30;13.57;;;;;;;1.11;100.00;96212.91;5094536;28;20022;-65
2023/11/08 01:26:57;;;;;;;22.63;11.38;;;;;;;1.13;100.00;96203.28;5076333;28;20056;-65
2023/11/08 01:29:23;;;;;;;13.98;9.38;;;;;;;1.13;100.00;96199.88;5086456;28;20031;-65
2023/11/08 01:31:48;;;;;;;17.17;9.15;;;;;;;1.14;100.00;96202.38;5081221;28;20070;-65
2023/11/08 01:34:14;;;;;;;14.20;8.98;;;;;;;1.11;100.00;96189.56;5082771;28;20100;-64
2023/11/08 01:36:39;;;;;;;11.48;7.68;;;;;;;1.12;100.00;96198.19;5083161;28;20039;-65
2023/11/08 01:39:04;;;;;;;9.35;7.05;;;;;;;1.11;100.00;96188.72;5088292;28;20016;-65
2023/11/08 01:41:30;;;;;;;9.98;7.15;;;;;;;1.09;100.00;96193.97;5082551;28;22375;-65
2023/11/08 01:43:58;;;;;;;11.63;8.15;;;;;;;1.07;100.00;96190.63;5077862;28;20032;-65
2023/11/08 01:46:26;;;;;;;10.02;7.00;;;;;;;1.05;100.00;96189.84;5089184;28;20043;-65
2023/11/08 01:48:54;;;;;;;7.72;6.85;;;;;;;1.05;100.00;96187.25;5085325;28;20020;-65
2023/11/08 01:51:21;;;;;;;11.00;7.18;;;;;;;1.07;100.00;96187.16;5079076;28;20063;-65
2023/11/08 01:53:49;;;;;;;8.77;6.75;;;;;;;0.98;100.00;96185.84;5080622;28;20037;-65
2023/11/08 01:56:16;;;;;;;10.45;7.68;;;;;;;0.95;100.00;96186.84;5087910;28;20028;-65
2023/11/08 01:58:42;;;;;;;12.18;7.65;;;;;;;0.96;100.00;96182.47;5080862;28;20036;-65
2023/11/08 02:01:09;;;;;;;15.32;7.10;;;;;;;0.97;100.00;96179.81;5083524;28;20428;-65
2023/11/08 02:03:39;;;;;;;8.40;6.35;;;;;;;0.92;100.00;96181.78;5078107;28;20071;-65
2023/11/08 02:06:06;;;;;;;5.75;5.25;;;;;;;0.91;100.00;96185.31;5084144;28;20028;-65
2023/11/08 02:08:31;;;;;;;7.30;6.32;;;;;;;0.92;100.00;96183.53;5083298;28;20032;-65
2023/11/08 02:10:58;;;;;;;7.80;5.70;;;;;;;0.91;100.00;96181.84;5076472;28;20059;-65
2023/11/08 02:13:24;;;;;;;8.15;6.05;;;;;;;0.92;100.00;96175.75;5083399;28;20059;-65
2023/11/08 02:15:50;;;;;;;8.05;6.18;;;;;;;0.89;100.00;96175.91;5078800;28;20055;-65
2023/11/08 02:18:16;;;;;;;7.15;4.70;;;;;;;0.89;100.00;96165.53;5092148;28;20029;-65
2023/11/08 02:20:42;;;;;;;6.78;4.03;;;;;;;0.91;100.00;96176.66;5084596;28;20033;-65
2023/11/08 02:23:08;;;;;;;4.85;3.95;;;;;;;0.90;100.00;96172.41;5079795;28;20032;-65
2023/11/08 02:25:33;;;;;;;9.35;4.93;;;;;;;0.83;100.00;96164.91;5081604;28;20032;-65
2023/11/08 02:27:59;;;;;;;7.45;6.30;;;;;;;0.84;100.00;96168.31;5078944;28;20030;-65
2023/11/08 02:30:24;;;;;;;8.30;6.03;;;;;;;0.78;100.00;96163.44;5079657;28;20111;-65
2023/11/08 02:32:50;;;;;;;5.80;5.28;;;;;;;0.78;100.00;96159.09;5084599;28;20031;-64
2023/11/08 02:35:16;;;;;;;4.93;4.40;;;;;;;0.77;100.00;96162.56;5085584;28;20035;-65
2023/11/08 02:37:44;;;;;;;6.38;4.50;;;;;;;0.74;100.00;96157.53;5081296;28;20021;-65
2023/11/08 02:40:10;;;;;;;6.07;4.43;;;;;;;0.73;100.00;96158.44;5081307;28;20123;-65
2023/11/08 02:42:45;;;;;;;5.38;4.30;;;;;;;0.71;100.00;96162.88;5081730;28;20027;-65
2023/11/08 02:45:12;;;;;;;5.75;5.30;;;;;;;0.55;100.00;96166.16;5086453;28;20107;-65
2023/11/08 02:47:37;;;;;;;5.65;4.95;;;;;;;0.59;100.00;96161.66;5089544;28;20054;-65
2023/11/08 02:50:04;;;;;;;5.88;5.28;;;;;;;0.57;100.00;96169.53;5092269;28;20027;-65
2023/11/08 02:52:29;;;;;;;6.65;5.82;;;;;;;0.60;100.00;96159.94;5084376;28;20028;-65
2023/11/08 02:54:55;;;;;;;5.75;5.20;;;;;;;0.61;100.00;96159.84;5085328;28;20392;-65
2023/11/08 02:57:22;;;;;;;5.30;4.80;;;;;;;0.62;100.00;96163.28;5089991;28;20107;-65
2023/11/08 02:59:47;;;;;;;5.15;3.97;;;;;;;0.63;100.00;96162.38;5083186;28;20029;-65
2023/11/08 03:02:13;;;;;;;15.18;4.50;;;;;;;0.61;100.00;96165.03;5084595;28;20026;-65
2023/11/08 03:04:39;;;;;;;5.13;4.68;;;;;;;0.62;100.00;96168.47;5084972;28;20041;-65
2023/11/08 03:07:05;;;;;;;6.18;4.38;;;;;;;0.63;100.00;96175.34;5088193;28;20054;-65
2023/11/08 03:09:31;;;;;;;5.13;4.70;;;;;;;0.62;100.00;96171.06;5081685;28;20024;-65
2023/11/08 03:11:58;;;;;;;4.30;4.00;;;;;;;0.57;100.00;96174.72;5085279;28;20582;-65
2023/11/08 03:14:27;;;;;;;4.05;3.72;;;;;;;0.59;100.00;96179.81;5085411;28;20028;-65
2023/11/08 03:16:57;;;;;;;3.65;3.40;;;;;;;0.55;100.00;96184.31;5087994;28;20027;-65
2023/11/08 03:19:23;;;;;;;4.38;3.65;;;;;;;0.52;100.00;96181.81;5086760;28;20028;-65
2023/11/08 03:21:49;;;;;;;3.92;3.63;;;;;;;0.51;100.00;96184.50;5085666;28;20027;-65
2023/11/08 03:24:15;;;;;;;3.35;3.05;;;;;;;0.50;100.00;96183.66;5087532;28;20062;-65
2023/11/08 03:26:43;;;;;;;3.30;3.00;;;;;;;0.48;100.00;96188.06;5083663;28;20027;-65
2023/11/08 03:29:09;;;;;;;4.45;4.05;;;;;;;0.46;100.00;96183.88;5090626;28;20033;-65
2023/11/08 03:31:34;;;;;;;13.68;7.38;;;;;;;0.45;100.00;96184.78;5087035;28;20035;-65
2023/11/08 03:34:00;;;;;;;18.50;9.80;;;;;;;0.44;100.00;96183.91;5080818;28;20024;-65
2023/11/08 03:36:26;;;;;;;22.00;13.05;;;;;;;0.45;100.00;96183.00;5086287;28;20408;-65
2023/11/08 03:38:51;;;;;;;13.25;10.05;;;;;;;0.46;100.00;96186.47;5081601;28;20028;-65
2023/11/08 03:41:17;;;;;;;13.25;9.65;;;;;;;0.45;100.00;96182.19;5084177;28;20020;-65
2023/11/08 03:43:43;;;;;;;12.52;8.48;;;;;;;0.41;100.00;96184.06;5079842;28;20539;-65
2023/11/08 03:46:10;;;;;;;14.25;8.75;;;;;;;0.41;100.00;96186.66;5085177;28;20028;-64
2023/11/08 03:48:37;;;;;;;11.10;7.40;;;;;;;0.39;100.00;96178.94;5081541;28;20763;-65
2023/11/08 03:51:03;;;;;;;10.38;7.28;;;;;;;0.38;100.00;96185.03;5082140;28;20023;-65
2023/11/08 03:53:28;;;;;;;9.52;7.38;;;;;;;0.37;100.00;96185.13;5092151;28;20492;-65
2023/11/08 03:55:54;;;;;;;10.38;5.85;;;;;;;0.38;100.00;96184.19;5085739;28;20020;-65
2023/11/08 03:58:19;;;;;;;7.55;4.60;;;;;;;0.39;100.00;96188.47;5088880;28;20024;-65
2023/11/08 04:00:45;;;;;;;8.15;6.60;;;;;;;0.38;100.00;96189.38;5082198;28;20469;-65
2023/11/08 04:03:11;;;;;;;8.20;5.53;;;;;;;0.34;100.00;96191.25;5087054;28;20059;-65
2023/11/08 04:05:36;;;;;;;5.07;4.57;;;;;;;0.35;100.00;96190.34;5089327;28;20084;-65
2023/11/08 04:08:03;;;;;;;5.90;5.35;;;;;;;0.33;100.00;96184.41;5090054;28;20107;-65
2023/11/08 04:10:29;;;;;;;5.80;5.20;;;;;;;0.27;100.00;96193.25;5083045;28;20040;-65
2023/11/08 04:12:54;;;;;;;6.72;4.90;;;;;;;0.28;100.00;96189.75;5080782;28;20021;-65
2023/11/08 04:15:20;;;;;;;4.88;4.10;;;;;;;0.28;100.00;96191.53;5091802;28;20520;-65
2023/11/08 04:17:45;;;;;;;5.88;4.57;;;;;;;0.27;100.00;96188.09;5087662;28;20016;-65
2023/11/08 04:20:12;;;;;;;5.55;4.32;;;;;;;0.25;100.00;96202.03;5086661;28;20103;-65
2023/11/08 04:22:41;;;;;;;5.05;3.70;;;;;;;0.24;100.00;96190.00;5087179;28;20024;-65
2023/11/08 04:25:07;;;;;;;6.43;4.68;;;;;;;0.23;100.00;96196.06;5085904;28;20042;-65
2023/11/08 04:27:32;;;;;;;4.40;4.00;;;;;;;0.22;100.00;96195.22;5087436;28;20028;-65
2023/11/08 04:29:57;;;;;;;5.70;3.92;;;;;;;0.21;100.00;96184.91;5085241;28;20095;-65
2023/11/08 04:32:24;;;;;;;5.32;3.92;;;;;;;0.19;100.00;96194.50;5084795;28;20492;-65
2023/11/08 04:34:50;;;;;;;4.18;3.80;;;;;;;0.20;100.00;96186.69;5091273;28;20020;-65
2023/11/08 04:37:16;;;;;;;4.18;3.78;;;;;;;0.19;100.00;96185.00;5089336;28;20104;-65
2023/11/08 04:39:46;;;;;;;5.15;3.42;;;;;;;0.14;100.00;96195.53;5076114;28;20055;-65
2023/11/08 04:42:13;;;;;;;6.20;5.55;;;;;;;0.14;100.00;96192.94;5085933;28;20077;-65
2023/11/08 04:44:38;;;;;;;5.20;4.78;;;;;;;0.13;100.00;96193.03;5088400;28;20504;-65
2023/11/08 04:47:04;;;;;;;5.68;4.00;;;;;;;0.08;100.00;96194.97;5082647;28;20028;-65
2023/11/08 04:49:29;;;;;;;4.32;4.03;;;;;;;0.07;100.00;96194.13;5088053;28;20046;-65
2023/11/08 04:51:55;;;;;;;4.88;3.83;;;;;;;0.10;100.00;96193.13;5087909;28;20016;-65
2023/11/08 04:54:21;;;;;;;3.97;3.67;;;;;;;0.10;100.00;96191.41;5089641;28;20031;-65
2023/11/08 04:56:46;;;;;;;3.50;3.30;;;;;;;0.06;100.00;96187.28;5084551;28;20027;-65
2023/11/08 04:59:12;;;;;;;3.65;3.42;;;;;;;0.10;100.00;96190.56;5087620;28;20024;-65
2023/11/08 05:01:39;;;;;;;2.88;2.60;;;;;;;0.09;100.00;96197.50;5085783;28;20024;-65
2023/11/08 05:04:04;;;;;;;3.05;2.85;;;;;;;0.11;100.00;96194.81;5082337;28;20035;-65
2023/11/08 05:06:30;;;;;;;3.45;3.08;;;;;;;0.08;100.00;96194.97;5082633;28;20123;-65
2023/11/08 05:08:56;;;;;;;2.80;2.60;;;;;;;0.07;100.00;96198.44;5087873;28;20027;-65
2023/11/08 05:11:21;;;;;;;3.35;3.15;;;;;;;0.03;100.00;96195.19;5087322;28;20435;-65
2023/11/08 05:13:47;;;;;;;4.13;3.53;;;;;;;0.05;100.00;96197.69;5090819;28;20016;-65
2023/11/08 05:16:12;;;;;;;4.05;3.75;;;;;;;0.05;100.00;96195.09;5078233;28;20069;-65
2023/11/08 05:18:38;;;;;;;6.03;3.38;;;;;;;0.04;100.00;96196.00;5082941;28;20031;-65
2023/11/08 05:21:03;;;;;;;3.35;3.15;;;;;;;0.06;100.00;96197.63;5081709;28;20035;-65
2023/11/08 05:23:29;;;;;;;3.85;3.47;;;;;;;0.03;100.00;96202.94;5092744;28;20028;-65
2023/11/08 05:25:55;;;;;;;8.10;3.97;;;;;;;0.00;100.00;96205.66;5078724;28;20042;-65
2023/11/08 05:28:20;;;;;;;5.18;4.57;;;;;;;-0.02;100.00;96210.88;5088345;28;20025;-65
2023/11/08 05:30:45;;;;;;;8.90;4.13;;;;;;;-0.02;100.00;96210.88;5081012;28;20111;-65
2023/11/08 05:33:11;;;;;;;6.63;4.65;;;;;;;-0.01;100.00;96215.16;5079757;28;20028;-65
2023/11/08 05:35:38;;;;;;;7.53;5.50;;;;;;;-0.02;100.00;96215.22;5081253;28;20059;-65
2023/11/08 05:38:03;;;;;;;22.00;14.85;;;;;;;-0.04;100.00;96220.47;5082326;28;20095;-65
2023/11/08 05:40:30;;;;;;;37.28;23.35;;;;;;;-0.07;100.00;96218.00;5083326;28;20028;-65
2023/11/08 05:42:56;;;;;;;23.65;16.52;;;;;;;-0.10;100.00;96218.16;5085040;28;20024;-65
2023/11/08 05:45:21;;;;;;;20.75;12.30;;;;;;;-0.13;100.00;96213.06;5087151;28;20023;-65
2023/11/08 05:47:47;;;;;;;14.68;10.35;;;;;;;-0.10;100.00;96218.16;5086037;28;20031;-65
2023/11/08 05:50:12;;;;;;;13.68;8.98;;;;;;;-0.08;100.00;96205.13;5092973;28;20032;-65
2023/11/08 05:52:38;;;;;;;16.63;7.55;;;;;;;-0.09;100.00;96206.88;5080290;28;20050;-65
2023/11/08 05:55:04;;;;;;;14.15;9.85;;;;;;;-0.11;100.00;96205.25;5089697;28;20587;-65
2023/11/08 05:57:30;;;;;;;19.33;15.10;;;;;;;-0.14;100.00;96211.38;5095187;28;20017;-65
2023/11/08 05:59:56;;;;;;;22.23;14.60;;;;;;;-0.19;100.00;96214.19;5085568;28;20493;-65
2023/11/08 06:02:22;;;;;;;23.63;13.88;;;;;;;-0.30;100.00;96212.03;5090270;28;20373;-65
2023/11/08 06:04:48;;;;;;;23.73;13.80;;;;;;;-0.28;100.00;96218.91;5087361;28;20024;-65
2023/11/08 06:07:14;;;;;;;15.98;12.20;;;;;;;-0.25;100.00;96223.94;5085521;28;20103;-65
2023/11/08 06:09:40;;;;;;;17.10;11.73;;;;;;;-0.23;100.00;96227.31;5090326;28;20070;-65
2023/11/08 06:12:06;;;;;;;18.48;13.65;;;;;;;-0.20;100.00;96229.78;5086467;28;20016;-65
2023/11/08 06:14:32;;;;;;;20.63;14.60;;;;;;;-0.16;100.00;96228.72;5096624;28;20469;-65
2023/11/08 06:16:57;;;;;;;22.05;16.77;;;;;;;-0.15;100.00;96225.22;5084109;28;20021;-65
2023/11/08 06:19:23;;;;;;;29.38;19.90;;;;;;;-0.16;100.00;96228.72;5092436;28;20012;-65
2023/11/08 06:21:48;;;;;;;33.40;20.15;;;;;;;-0.18;100.00;96230.53;5094444;28;20024;-65
2023/11/08 06:24:15;;;;;;;30.02;21.05;;;;;;;-0.16;100.00;96229.59;5081666;28;20020;-64
2023/11/08 06:26:41;;;;;;;40.03;28.42;;;;;;;-0.18;100.00;96225.38;5086673;28;20043;-64
2023/11/08 06:29:06;;;;;;;46.10;30.63;;;;;;;-0.16;100.00;96228.72;5101597;28;20024;-65
2023/11/08 06:31:36;;;;;;;40.40;26.98;;;;;;;-0.16;100.00;96224.41;5090467;28;20024;-65
2023/11/08 06:34:02;;;;;;;40.80;27.85;;;;;;;-0.14;100.00;96224.31;5085203;28;20021;-64
2023/11/08 06:36:28;;;;;;;37.63;27.20;;;;;;;-0.19;100.00;96223.69;5087807;28;20052;-65
2023/11/08 06:38:53;;;;;;;40.83;27.73;;;;;;;-0.18;100.00;96225.38;5081115;28;20020;-65
2023/11/08 06:41:19;;;;;;;47.42;30.73;;;;;;;-0.19;100.00;96219.38;5084376;28;20032;-64
2023/11/08 06:43:45;;;;;;;37.85;23.48;;;;;;;-0.15;100.00;96226.09;5091756;28;20484;-64
2023/11/08 06:46:11;;;;;;;33.65;23.52;;;;;;;-0.12;100.00;96229.47;5084181;28;20083;-64
2023/11/08 06:48:36;;;;;;;34.80;24.20;;;;;;;-0.11;100.00;96229.41;5088548;28;20024;-63
2023/11/08 06:51:02;;;;;;;31.77;24.88;;;;;;;-0.09;100.00;96232.78;5086571;28;20021;-64
2023/11/08 06:53:27;;;;;;;46.08;33.08;;;;;;;-0.06;100.00;96227.47;5079686;28;20111;-64
2023/11/08 06:55:52;;;;;;;39.83;30.17;;;;;;;-0.08;100.00;96229.28;5082316;28;20812;-64
2023/11/08 06:58:18;;;;;;;29.25;24.92;;;;;;;-0.09;100.00;96232.78;5091196;28;20115;-63
2023/11/08 07:00:43;;;;;;;30.73;21.35;;;;;;;-0.11;100.00;96224.22;5089771;28;20035;-64
2023/11/08 07:03:09;;;;;;;26.15;19.77;;;;;;;-0.09;100.00;96232.78;5081664;28;20020;-63
2023/11/08 07:05:35;;;;;;;23.08;19.33;;;;;;;-0.02;100.00;96229.00;5093551;28;20913;-64
2023/11/08 07:08:01;;;;;;;29.50;21.00;;;;;;;0.05;100.00;96232.19;5092034;28;20034;-64
2023/11/08 07:10:27;;;;;;;33.45;23.05;;;;;;;0.05;100.00;96229.59;5091471;28;20052;-63
2023/11/08 07:12:53;;;;;;;34.15;25.23;;;;;;;0.06;100.00;96228.69;5090261;28;20013;-63
2023/11/08 07:15:19;;;;;;;31.10;22.73;;;;;;;0.06;100.00;96235.59;5087482;28;20484;-63
2023/11/08 07:17:45;;;;;;;35.67;26.05;;;;;;;0.02;100.00;96236.66;5087686;28;20028;-64
2023/11/08 07:20:11;;;;;;;37.33;26.23;;;;;;;0.02;100.00;96247.00;5088157;28;20056;-64
2023/11/08 07:22:37;;;;;;;39.03;25.25;;;;;;;0.02;100.00;96247.88;5085213;28;20488;-64
2023/11/08 07:25:03;;;;;;;33.53;23.88;;;;;;;0.03;100.00;96257.31;5086924;28;20051;-64
2023/11/08 07:27:29;;;;;;;26.98;21.08;;;;;;;0.06;100.00;96257.19;5091075;28;20135;-64
2023/11/08 07:29:55;;;;;;;30.55;20.65;;;;;;;0.08;100.00;96252.78;5085075;28;20108;-64
2023/11/08 07:32:20;;;;;;;25.98;18.67;;;;;;;0.10;100.00;96260.47;5085781;28;20130;-63
2023/11/08 07:34:46;;;;;;;22.98;18.13;;;;;;;0.14;100.00;96264.63;5090390;28;20020;-64
2023/11/08 07:37:13;;;;;;;20.83;18.63;;;;;;;0.20;100.00;96258.34;5092330;28;20025;-64
2023/11/08 07:39:39;;;;;;;19.20;16.65;;;;;;;0.24;100.00;96267.69;5090076;28;20028;-64
2023/11/08 07:42:05;;;;;;;29.40;26.23;;;;;;;0.23;100.00;96266.81;5080845;28;20477;-64
2023/11/08 07:44:30;;;;;;;32.10;18.20;;;;;;;0.26;100.00;96263.28;5090977;28;20024;-63
2023/11/08 07:46:56;;;;;;;26.00;20.65;;;;;;;0.24;100.00;96275.44;5088438;28;20072;-64
2023/11/08 07:49:22;;;;;;;34.33;18.88;;;;;;;0.27;100.00;96278.75;5087596;28;20118;-64
2023/11/08 07:51:48;;;;;;;22.00;15.77;;;;;;;0.32;100.00;96280.28;5090153;28;20050;-63
2023/11/08 07:54:13;;;;;;;19.83;17.73;;;;;;;0.33;100.00;96281.97;5086187;28;20028;-64
2023/11/08 07:56:39;;;;;;;22.20;17.10;;;;;;;0.23;100.00;96284.97;5081097;28;20146;-64
2023/11/08 07:59:04;;;;;;;17.63;15.32;;;;;;;0.22;100.00;96285.00;5092083;28;20028;-64
2023/11/08 08:01:31;;;;;;;17.52;14.68;;;;;;;0.25;100.00;96280.56;5082851;28;20066;-64
2023/11/08 08:03:57;;;;;;;18.10;15.07;;;;;;;0.34;100.00;96287.09;5084041;28;20111;-64
2023/11/08 08:06:23;;;;;;;36.47;19.52;;;;;;;0.45;100.00;96285.81;5093813;28;20116;-63
2023/11/08 08:08:48;;;;;;;24.05;18.83;;;;;;;0.43;100.00;96285.88;5082525;28;20502;-63
2023/11/08 08:11:14;;;;;;;27.05;18.25;;;;;;;0.49;100.00;96277.00;5087451;28;20045;-63
2023/11/08 08:13:40;;;;;;;26.38;18.83;;;;;;;0.50;100.00;96291.63;5088036;28;20036;-64
2023/11/08 08:16:06;;;;;;;26.17;18.55;;;;;;;0.53;100.00;96291.50;5086060;28;20034;-64
2023/11/08 08:18:32;;;;;;;28.88;21.58;;;;;;;0.53;100.00;96289.75;5093408;28;20024;-63
2023/11/08 08:20:58;;;;;;;30.83;21.30;;;;;;;0.54;100.00;96288.84;5084784;28;20030;-63
2023/11/08 08:23:24;;;;;;;31.20;22.63;;;;;;;0.59;100.00;96287.81;5096575;28;20467;-64
2023/11/08 08:25:49;;;;;;;30.85;22.83;;;;;;;0.60;100.00;96289.50;5089379;28;20032;-64
2023/11/08 08:28:15;;;;;;;35.22;23.02;;;;;;;0.55;100.00;96285.38;5084244;28;20036;-64
2023/11/08 08:30:40;;;;;;;29.20;21.83;;;;;;;0.53;100.00;96281.16;5084570;28;20099;-65
2023/11/08 08:33:05;;;;;;;30.25;24.05;;;;;;;0.55;100.00;96282.78;5081831;28;20043;-66
2023/11/08 08:35:32;;;;;;;38.60;26.98;;;;;;;0.69;100.00;96281.31;5087066;28;20062;-65
2023/11/08 08:38:00;;;;;;;41.45;32.10;;;;;;;0.85;100.00;96284.94;5086093;28;20033;-65
2023/11/08 08:40:26;;;;;;;40.92;32.47;;;;;;;1.00;100.00;96273.03;5085175;28;20368;-66
2023/11/08 08:42:51;;;;;;;43.72;39.08;;;;;;;1.14;100.00;96276.75;5084436;28;20051;-65
2023/11/08 08:45:17;;;;;;;46.42;41.60;;;;;;;1.28;100.00;96281.31;5082473;28;20024;-65
2023/11/08 08:47:43;;;;;;;43.83;39.22;;;;;;;1.41;100.00;96282.41;5090835;28;20020;-65
2023/11/08 08:50:11;;;;;;;35.67;31.90;;;;;;;1.53;100.00;96285.38;5081559;28;20035;-64
2023/11/08 08:52:37;;;;;;;37.25;31.40;;;;;;;1.60;100.00;96281.56;5087906;28;20020;-63
2023/11/08 08:55:03;;;;;;;41.13;36.10;;;;;;;1.70;100.00;96288.03;5071779;28;20054;-64
2023/11/08 08:57:28;;;;;;;45.60;40.80;;;;;;;1.85;100.00;96276.06;5079564;28;20057;-64
2023/11/08 08:59:54;;;;;;;43.60;39.42;;;;;;;2.00;100.00;96277.06;5083163;28;20415;-64
2023/11/08 09:02:19;;;;;;;36.80;33.40;;;;;;;2.14;100.00;96286.78;5082035;28;20034;-63
2023/11/08 09:04:44;;;;;;;27.08;24.40;;;;;;;2.27;100.00;96281.00;5081484;28;20023;-63
2023/11/08 09:07:11;;;;;;;25.10;22.55;;;;;;;2.37;100.00;96286.56;5089637;28;20404;-64
2023/11/08 09:09:36;;;;;;;16.02;14.32;;;;;;;2.48;100.00;96275.63;5083268;28;20032;-63
2023/11/08 09:12:02;;;;;;;17.88;16.00;;;;;;;2.60;100.00;96282.78;5089691;28;20045;-64
2023/11/08 09:14:30;;;;;;;15.65;14.05;;;;;;;2.77;100.00;96278.50;5080154;28;20058;-64
2023/11/08 09:16:56;;;;;;;13.48;11.10;;;;;;;2.85;100.00;96277.19;5073937;28;20098;-64
2023/11/08 09:19:22;;;;;;;11.23;10.05;;;;;;;2.91;100.00;96270.81;5085323;28;20031;-64
2023/11/08 09:21:47;;;;;;;12.05;10.85;;;;;;;3.04;100.00;96270.16;5079888;28;20035;-64
2023/11/08 09:24:13;;;;;;;10.57;8.68;;;;;;;3.18;100.00;96285.03;5083889;28;20058;-64
2023/11/08 09:26:41;;;;;;;8.57;7.88;;;;;;;3.28;100.00;96279.25;5081300;28;20111;-64
2023/11/08 09:29:07;;;;;;;5.35;4.82;;;;;;;3.39;100.00;96273.47;5086350;28;20028;-64
2023/11/08 09:31:34;;;;;;;4.18;3.80;;;;;;;3.52;100.00;96275.41;5078864;28;20684;-63
2023/11/08 09:34:00;;;;;;;6.28;4.18;;;;;;;3.65;100.00;96271.22;5084704;28;20024;-64
2023/11/08 09:36:26;;;;;;;5.47;4.20;;;;;;;3.70;100.00;96271.81;5080471;28;20065;-64
2023/11/08 09:38:53;;;;;;;3.90;3.50;;;;;;;3.78;100.00;96275.72;5076013;28;20052;-64
2023/11/08 09:41:20;;;;;;;3.28;2.97;;;;;;;3.81;100.00;96275.56;5078302;28;20035;-64
2023/11/08 09:43:51;;;;;;;4.57;3.95;;;;;;;3.84;100.00;96278.84;5090218;28;20115;-64
2023/11/08 09:46:17;;;;;;;17.38;15.68;;;;;;;3.95;100.00;96290.41;5080080;28;20028;-63
2023/11/08 09:48:47;;;;;;;16.23;14.65;;;;;;;4.04;100.00;96286.44;5084059;28;20171;-64
2023/11/08 09:51:13;;;;;;;5.00;4.57;;;;;;;4.15;100.00;96289.31;5081328;28;20035;-64
2023/11/08 09:53:39;;;;;;;4.88;4.38;;;;;;;4.18;100.00;96304.75;5084242;28;20021;-64
2023/11/08 09:56:05;;;;;;;8.15;6.97;;;;;;;4.28;100.00;96316.31;5092822;28;20107;-64
2023/11/08 09:58:32;;;;;;;12.88;4.28;;;;;;;4.36;100.00;96323.72;5085316;28;20053;-64
2023/11/08 10:00:59;;;;;;;2.78;2.58;;;;;;;4.40;100.00;96325.22;5087086;28;20381;-64
2023/11/08 10:03:25;;;;;;;4.35;3.95;;;;;;;4.52;100.00;96334.09;5081942;28;20032;-64
2023/11/08 10:05:53;;;;;;;2.00;1.90;;;;;;;4.50;100.00;96343.78;5088592;28;20031;-64
2023/11/08 10:08:19;;;;;;;8.50;6.30;;;;;;;4.64;100.00;96334.31;5084160;28;20103;-64
2023/11/08 10:10:48;;;;;;;8.02;5.85;;;;;;;4.67;100.00;96340.22;5087375;28;20086;-64
2023/11/08 10:13:15;;;;;;;3.78;2.65;;;;;;;4.81;100.00;96352.44;5088643;28;20044;-64
2023/11/08 10:15:41;;;;;;;2.72;2.53;;;;;;;4.76;100.00;96361.47;5089600;28;20056;-64
2023/11/08 10:18:10;;;;;;;3.90;2.60;;;;;;;4.85;100.00;96364.38;5088367;28;20032;-64
2023/11/08 10:20:37;;;;;;;7.32;6.15;;;;;;;4.86;100.00;96357.38;5087062;28;20442;-64
2023/11/08 10:23:05;;;;;;;7.07;6.07;;;;;;;4.93;100.00;96365.69;5084566;28;20063;-63
2023/11/08 10:25:31;;;;;;;5.90;4.85;;;;;;;5.01;100.00;96364.31;5088818;28;20027;-64
2023/11/08 10:28:07;;;;;;;4.40;3.60;;;;;;;5.12;100.00;96358.44;5094636;28;20083;-64
2023/11/08 10:30:33;;;;;;;;;;;;;;;5.15;100.00;96363.47;5084515;28;20056;-65
2023/11/08 10:33:13;;;;;;;7.18;2.70;;;;;;;5.16;100.00;96383.44;5080295;28;20487;-64
2023/11/08 10:35:42;;;;;;;2.78;2.60;;;;;;;5.22;100.00;96387.44;5091375;28;20019;-65
2023/11/08 10:38:11;;;;;;;2.10;1.95;;;;;;;5.28;100.00;96389.69;5085063;28;20397;-64
2023/11/08 10:40:36;;;;;;;2.03;1.80;;;;;;;5.39;100.00;96391.66;5084721;28;20068;-64
2023/11/08 10:43:03;;;;;;;2.00;1.73;;;;;;;5.52;100.00;96380.47;5079560;28;20024;-64
2023/11/08 10:45:32;;;;;;;1.80;1.70;;;;;;;5.57;100.00;96392.31;5082338;28;20032;-65
2023/11/08 10:47:59;;;;;;;1.67;1.67;;;;;;;5.66;100.00;96383.09;5089360;28;20059;-64
2023/11/08 10:50:25;;;;;;;2.35;2.03;;;;;;;5.77;100.00;96378.97;5081066;28;20024;-64
2023/11/08 10:52:52;;;;;;;2.35;2.25;;;;;;;5.85;100.00;96371.47;5081798;28;20028;-64
2023/11/08 10:55:19;;;;;;;2.30;2.10;;;;;;;5.99;100.00;96373.25;5089237;28;20551;-64
2023/11/08 10:57:58;;;;;;;2.15;2.00;;;;;;;6.10;100.00;96372.59;5085261;28;20653;-64
2023/11/08 11:00:25;;;;;;;6.68;2.50;;;;;;;6.14;100.00;96366.22;5091461;28;20051;-64
2023/11/08 11:02:55;;;;;;;17.48;4.00;;;;;;;6.25;100.00;96365.53;5082842;28;20030;-65
2023/11/08 11:05:22;;;;;;;3.08;2.40;;;;;;;6.33;100.00;96370.28;5086050;28;20107;-64
2023/11/08 11:07:48;;;;;;;2.25;1.73;;;;;;;6.45;100.00;96369.47;5087219;28;20031;-64
2023/11/08 11:10:17;;;;;;;2.28;2.10;;;;;;;6.49;100.00;96362.28;5100028;28;20060;-64
2023/11/08 11:13:02;;;;;;;2.10;1.90;;;;;;;6.52;100.00;96373.38;5092131;28;20029;-64
2023/11/08 11:15:52;;;;;;;4.03;2.15;;;;;;;6.56;100.00;96374.84;5088052;28;20087;-64
2023/11/08 11:18:21;;;;;;;2.03;1.90;;;;;;;6.66;100.00;96379.47;5090162;28;20057;-64
2023/11/08 11:20:54;;;;;;;2.70;2.50;;;;;;;6.79;100.00;96377.75;5087496;28;20020;-64